Sao Pedro Do Mar — CUFR8 — position and weather

sailwx.info

Track history (hours):
 
Tides and Currents Weather Stations Pressure Air Temp Water Temp Dewpoint Dewpoint Depression Visibility Wind Speed Wind Dir Waves Ship Positions

Sao Pedro Do Mar

Last reported at 2018-Aug-14 23:29 UTC. Time now 2018-Aug-14 23:45 UTC.
Position N 36°46' W 008°22'.

Length 25 m.

MMSI: 263411770.

Date/timePositionNaut miles runAvg speedWind from/ knotsBaromVisibWave heightAir tempDewpointWater temp
2018-Aug-14 23:29N 36°46' W 008°22'2 2.6
2018-Aug-14 22:51N 36°46' W 008°24'4 2.7
2018-Aug-14 21:13N 36°47' W 008°29'1 2.7
2018-Aug-14 21:00N 36°47' W 008°30'1 2.3
2018-Aug-14 20:30N 36°47' W 008°31'9 2.7
2018-Aug-14 17:13N 36°48' W 008°42'1 3.1
2018-Aug-14 16:57N 36°48' W 008°43'2 1.4
2018-Aug-14 15:37N 36°48' W 008°41'0 2.4
2018-Aug-14 15:30N 36°48' W 008°41'1 0.5
2018-Aug-14 14:22N 36°47' W 008°40'4 3.0
2018-Aug-14 13:02N 36°47' W 008°45'1 2.9
2018-Aug-14 12:37N 36°47' W 008°46'5 1.0
2018-Aug-14 08:14N 36°49' W 008°52'1 2.9
2018-Aug-14 07:56N 36°49' W 008°51'1 2.9
2018-Aug-14 07:29N 36°49' W 008°49'1 2.9
2018-Aug-14 07:00N 36°49' W 008°47'1 2.9
2018-Aug-14 06:30N 36°49' W 008°45'5 2.5
2018-Aug-14 04:28N 36°50' W 008°39'3 6.3
2018-Aug-14 03:56N 36°53' W 008°38'3 6.7
2018-Aug-14 03:29N 36°56' W 008°37'13 7.4
2018-Aug-14 01:46N 37°08' W 008°32'0 0.2
2018-Aug-14 00:52N 37°08' W 008°32'0 0.0
2018-Aug-14 00:18N 37°08' W 008°32'0 0.0
2018-Aug-14 00:00N 37°08' W 008°32'0 0.0
2018-Aug-13 23:23N 37°08' W 008°32'0 0.0
2018-Aug-13 22:55N 37°08' W 008°32'0 0.0
2018-Aug-13 22:29N 37°08' W 008°32'0 0.0
2018-Aug-13 21:56N 37°08' W 008°32'0 0.0
2018-Aug-13 21:29N 37°08' W 008°32'0 0.0
2018-Aug-13 21:00N 37°08' W 008°32'0 0.0
2018-Aug-13 20:30N 37°08' W 008°32'0 0.0
2018-Aug-13 20:00N 37°08' W 008°32'0 0.1
2018-Aug-13 19:30N 37°08' W 008°32'0 0.5
2018-Aug-13 19:00N 37°08' W 008°32'4 7.1
2018-Aug-13 18:30N 37°04' W 008°33'4 7.7
2018-Aug-13 18:00N 37°01' W 008°34'4 7.8
2018-Aug-13 17:30N 36°57' W 008°35'4 7.7
2018-Aug-13 16:58N 36°53' W 008°37'2 5.0
2018-Aug-13 16:28N 36°51' W 008°38'2 3.8
2018-Aug-13 15:57N 36°49' W 008°39'1 1.3
2018-Aug-13 15:30N 36°49' W 008°39'1 2.1
2018-Aug-13 15:00N 36°48' W 008°39'1 2.4
2018-Aug-13 14:29N 36°47' W 008°40'1 2.6
2018-Aug-13 14:00N 36°47' W 008°42'1 2.6
2018-Aug-13 13:30N 36°48' W 008°43'1 2.7
2018-Aug-13 13:00N 36°48' W 008°45'1 2.6
2018-Aug-13 12:26N 36°48' W 008°47'3 2.8
2018-Aug-13 11:19N 36°48' W 008°51'1 2.9
2018-Aug-13 10:56N 36°48' W 008°52'2 1.1
2018-Aug-13 09:00N 36°49' W 008°50'5 2.7
2018-Aug-13 07:14N 36°49' W 008°44'1 2.7
2018-Aug-13 07:00N 36°49' W 008°44'2 2.8
2018-Aug-13 06:27N 36°48' W 008°42'2 2.7
2018-Aug-13 05:38N 36°50' W 008°39'4 4.9
2018-Aug-13 04:54N 36°53' W 008°38'4 8.7
2018-Aug-13 04:26N 36°57' W 008°36'4 8.6
2018-Aug-13 04:00N 37°01' W 008°35'7 7.6
2018-Aug-13 03:06N 37°07' W 008°32'1 5.0
2018-Aug-13 02:53N 37°08' W 008°32'  
2018-Aug-10 12:38N 37°08' W 008°32'0 0.0
2018-Aug-10 12:30N 37°08' W 008°32'0 0.0
2018-Aug-10 12:00N 37°08' W 008°32'0 0.0
2018-Aug-10 11:30N 37°08' W 008°32'0 0.0
2018-Aug-10 10:59N 37°08' W 008°32'0 0.0
2018-Aug-10 10:30N 37°08' W 008°32'17 0.9
2018-Aug-09 16:48N 36°51' W 008°34'1 2.7
2018-Aug-09 16:30N 36°51' W 008°34'1 2.7
2018-Aug-09 15:58N 36°50' W 008°36'2 3.2
2018-Aug-09 15:30N 36°51' W 008°38'1 1.9
2018-Aug-09 15:01N 36°52' W 008°39'1 1.4
2018-Aug-09 14:30N 36°51' W 008°39'1 2.6
2018-Aug-09 14:00N 36°50' W 008°40'1 2.5
2018-Aug-09 13:30N 36°50' W 008°41'1 2.6
2018-Aug-09 13:01N 36°50' W 008°43'1 2.7
2018-Aug-09 12:27N 36°50' W 008°45'1 2.6
2018-Aug-09 11:59N 36°51' W 008°46'1 2.7
2018-Aug-09 11:31N 36°51' W 008°48'4 0.8
2018-Aug-09 06:21N 36°50' W 008°43'1 2.9
2018-Aug-09 05:59N 36°50' W 008°42'3 2.6
2018-Aug-09 05:00N 36°51' W 008°39'1 2.8
2018-Aug-09 04:30N 36°50' W 008°38'0 0.5
2018-Aug-09 04:00N 36°50' W 008°39'0 0.4
2018-Aug-09 03:30N 36°50' W 008°39'0 0.5
2018-Aug-09 03:00N 36°50' W 008°39'0 0.4
2018-Aug-09 02:30N 36°50' W 008°39'0 0.4
2018-Aug-09 01:59N 36°50' W 008°39'0 0.4
2018-Aug-09 01:26N 36°51' W 008°40'0 0.4
2018-Aug-09 01:00N 36°51' W 008°40'0 0.5
2018-Aug-09 00:30N 36°51' W 008°40'0 0.5
2018-Aug-09 00:00N 36°51' W 008°40'0 0.7
2018-Aug-08 23:30N 36°52' W 008°40'0 0.9
2018-Aug-08 23:00N 36°52' W 008°40'1 1.0
2018-Aug-08 22:29N 36°53' W 008°40'1 1.1
2018-Aug-08 22:00N 36°53' W 008°40'1 1.0
2018-Aug-08 21:30N 36°53' W 008°40'3 5.9
2018-Aug-08 20:58N 36°51' W 008°39'0 0.6
2018-Aug-08 20:30N 36°51' W 008°39'1 2.5
2018-Aug-08 20:00N 36°50' W 008°40'1 2.5
2018-Aug-08 19:30N 36°50' W 008°41'1 2.6
2018-Aug-08 19:00N 36°50' W 008°43'1 2.7
2018-Aug-08 18:30N 36°50' W 008°44'1 2.7
2018-Aug-08 17:58N 36°50' W 008°46'1 2.7
2018-Aug-08 17:30N 36°51' W 008°48'2 2.7
2018-Aug-08 16:36N 36°51' W 008°51'0 2.7
2018-Aug-08 16:26N 36°51' W 008°51'2 0.8
2018-Aug-08 13:59N 36°51' W 008°49'2 2.5
2018-Aug-08 13:05N 36°51' W 008°46'2 2.5
2018-Aug-08 12:26N 36°50' W 008°44'2 2.7
2018-Aug-08 11:50N 36°50' W 008°42'1 2.7
2018-Aug-08 11:27N 36°50' W 008°41'3 2.5
2018-Aug-08 10:08N 36°49' W 008°37'2 1.7
2018-Aug-08 08:57N 36°50' W 008°39'1 2.6
2018-Aug-08 08:30N 36°50' W 008°41'2 2.6
2018-Aug-08 07:51N 36°50' W 008°43'1 2.9
2018-Aug-08 07:27N 36°51' W 008°44'1 2.7
2018-Aug-08 06:59N 36°51' W 008°46'1 2.7
2018-Aug-08 06:30N 36°51' W 008°47'1 2.7
2018-Aug-08 05:58N 36°51' W 008°49'1 2.8
2018-Aug-08 05:27N 36°51' W 008°51'6 4.0
2018-Aug-08 03:59N 36°57' W 008°54'3 7.1
2018-Aug-08 03:30N 36°60' W 008°55'1 1.2
2018-Aug-08 02:36N 37°01' W 008°56'0 0.0
2018-Aug-08 02:18N 37°01' W 008°56'0 0.1
2018-Aug-07 21:39N 37°01' W 008°55'1 7.2
2018-Aug-07 21:27N 36°60' W 008°54'4 8.4
2018-Aug-07 20:58N 36°56' W 008°52'6 7.7
2018-Aug-07 20:14N 36°51' W 008°49'0 0.7
2018-Aug-07 19:53N 36°51' W 008°49'1 2.5
2018-Aug-07 19:30N 36°51' W 008°48'2 2.5
2018-Aug-07 18:53N 36°51' W 008°46'1 2.3
2018-Aug-07 18:30N 36°50' W 008°45'1 2.6
2018-Aug-07 18:00N 36°50' W 008°43'1 2.6
2018-Aug-07 17:30N 36°50' W 008°42'1 2.7
2018-Aug-07 17:00N 36°50' W 008°40'1 2.6
2018-Aug-07 16:29N 36°50' W 008°38'2 2.6
2018-Aug-07 15:44N 36°49' W 008°36'1 2.1
2018-Aug-07 15:21N 36°49' W 008°35'1 1.3
2018-Aug-07 14:39N 36°49' W 008°36'0 2.9
2018-Aug-07 14:29N 36°49' W 008°37'1 2.9
2018-Aug-07 14:00N 36°50' W 008°39'1 2.8
2018-Aug-07 13:30N 36°50' W 008°40'1 2.9
2018-Aug-07 13:00N 36°50' W 008°42'2 3.1
2018-Aug-07 12:30N 36°51' W 008°44'2 2.9
2018-Aug-07 11:55N 36°51' W 008°46'1 2.9
2018-Aug-07 11:30N 36°51' W 008°47'2 2.9
2018-Aug-07 10:58N 36°51' W 008°49'4 0.9
2018-Aug-07 06:37N 36°49' W 008°45'1 2.8
2018-Aug-07 06:10N 36°50' W 008°45'1 3.3
2018-Aug-07 05:48N 36°51' W 008°45'1 1.6
2018-Aug-07 05:07N 36°52' W 008°45'0 0.6
2018-Aug-07 04:57N 36°53' W 008°45'1 1.9
2018-Aug-07 04:22N 36°53' W 008°46'0 0.4
2018-Aug-07 03:59N 36°53' W 008°47'0 0.4
2018-Aug-07 03:27N 36°53' W 008°47'1 0.4
2018-Aug-07 01:32N 36°53' W 008°48'0 0.5
2018-Aug-07 01:23N 36°54' W 008°48'0 0.6
2018-Aug-07 00:57N 36°54' W 008°48'0 0.7
2018-Aug-07 00:23N 36°54' W 008°48'0 0.7
2018-Aug-07 00:00N 36°54' W 008°48'0 0.7
2018-Aug-06 23:30N 36°55' W 008°48'2 3.6
2018-Aug-06 23:00N 36°56' W 008°50'4 7.9
2018-Aug-06 22:30N 36°58' W 008°54'4 7.6
2018-Aug-06 21:59N 36°60' W 008°58'14 8.0
2018-Aug-06 20:16N 37°13' W 009°02'3 8.3
2018-Aug-06 19:56N 37°16' W 009°02'4 8.4
2018-Aug-06 19:24N 37°20' W 009°04'4 8.6
2018-Aug-06 18:53N 37°24' W 009°06'4 8.7
2018-Aug-06 18:29N 37°28' W 009°07'4 8.8
2018-Aug-06 18:00N 37°32' W 009°09'3 5.1
2018-Aug-06 17:30N 37°34' W 009°11'1 1.3
2018-Aug-06 17:00N 37°34' W 009°11'1 3.0
2018-Aug-06 16:30N 37°36' W 009°11'1 2.9
2018-Aug-06 15:59N 37°37' W 009°11'1 2.9
2018-Aug-06 15:30N 37°39' W 009°11'1 3.0
2018-Aug-06 15:00N 37°40' W 009°12'2 3.0
2018-Aug-06 14:30N 37°42' W 009°11'1 3.1
2018-Aug-06 14:00N 37°43' W 009°11'2 3.1
2018-Aug-06 13:30N 37°45' W 009°11'2 3.1
2018-Aug-06 13:00N 37°46' W 009°11'2 3.1
2018-Aug-06 12:30N 37°48' W 009°11'2 3.4
2018-Aug-06 12:00N 37°49' W 009°11'1 1.5
2018-Aug-06 11:30N 37°49' W 009°10'1 2.7
2018-Aug-06 11:00N 37°48' W 009°10'1 2.5
2018-Aug-06 10:30N 37°47' W 009°11'1 2.2
2018-Aug-06 10:00N 37°46' W 009°12'2 3.9
2018-Aug-06 09:30N 37°45' W 009°14'1 2.9
2018-Aug-06 09:00N 37°45' W 009°16'0 0.3
2018-Aug-06 08:30N 37°45' W 009°16'1 2.5
2018-Aug-06 08:00N 37°43' W 009°15'1 2.7
2018-Aug-06 07:30N 37°42' W 009°15'1 2.7
2018-Aug-06 07:00N 37°41' W 009°14'1 2.5
2018-Aug-06 06:30N 37°40' W 009°15'2 3.5
2018-Aug-06 06:00N 37°38' W 009°16'4 8.3
2018-Aug-06 05:30N 37°38' W 009°21'1 2.8
2018-Aug-06 05:00N 37°38' W 009°23'0 0.2
2018-Aug-06 04:30N 37°38' W 009°23'1 2.7
2018-Aug-06 04:00N 37°37' W 009°22'1 2.6
2018-Aug-06 03:30N 37°36' W 009°21'1 2.5
2018-Aug-06 03:00N 37°35' W 009°20'1 2.6
2018-Aug-06 02:30N 37°33' W 009°20'1 2.7
2018-Aug-06 02:00N 37°32' W 009°19'1 2.7
2018-Aug-06 01:30N 37°31' W 009°18'1 2.2
2018-Aug-06 01:00N 37°30' W 009°18'2 3.2
2018-Aug-06 00:30N 37°28' W 009°18'2 4.8
2018-Aug-06 00:00N 37°26' W 009°17'4 8.4
2018-Aug-05 23:30N 37°22' W 009°15'4 8.1
2018-Aug-05 23:00N 37°19' W 009°13'4 8.2
2018-Aug-05 22:30N 37°15' W 009°10'4 8.7
2018-Aug-05 22:00N 37°11' W 009°07'5 8.8
2018-Aug-05 21:29N 37°08' W 009°04'4 8.0
2018-Aug-05 20:58N 37°04' W 009°02'6 1.4
2018-Aug-05 16:55N 37°01' W 008°56'0 0.0
2018-Aug-05 16:30N 37°01' W 008°56'0 0.0
2018-Aug-05 16:00N 37°01' W 008°56'0 0.0
2018-Aug-05 15:30N 37°01' W 008°56'0 0.0
2018-Aug-05 14:59N 37°01' W 008°56'0 0.1
2018-Aug-05 14:30N 37°01' W 008°56'0 0.2
2018-Aug-05 13:30N 37°01' W 008°55'  
Track history (hours):
 
Tides and Currents Weather Stations Pressure Air Temp Water Temp Dewpoint Dewpoint Depression Visibility Wind Speed Wind Dir Waves Ship Positions

Sao Pedro Do Mar

Last reported at 2018-Aug-14 23:29 UTC. Time now 2018-Aug-14 23:45 UTC.
Position N 36°46' W 008°22'.

Length 25 m.

MMSI: 263411770.

Date/timePositionNaut miles runAvg speedWind from/ knotsBaromVisibWave heightAir tempDewpointWater temp
2018-Aug-14 23:29N 36°46' W 008°22'2 2.6
2018-Aug-14 22:51N 36°46' W 008°24'4 2.7
2018-Aug-14 21:13N 36°47' W 008°29'1 2.7
2018-Aug-14 21:00N 36°47' W 008°30'1 2.3
2018-Aug-14 20:30N 36°47' W 008°31'9 2.7
2018-Aug-14 17:13N 36°48' W 008°42'1 3.1
2018-Aug-14 16:57N 36°48' W 008°43'2 1.4
2018-Aug-14 15:37N 36°48' W 008°41'0 2.4
2018-Aug-14 15:30N 36°48' W 008°41'1 0.5
2018-Aug-14 14:22N 36°47' W 008°40'4 3.0
2018-Aug-14 13:02N 36°47' W 008°45'1 2.9
2018-Aug-14 12:37N 36°47' W 008°46'5 1.0
2018-Aug-14 08:14N 36°49' W 008°52'1 2.9
2018-Aug-14 07:56N 36°49' W 008°51'1 2.9
2018-Aug-14 07:29N 36°49' W 008°49'1 2.9
2018-Aug-14 07:00N 36°49' W 008°47'1 2.9
2018-Aug-14 06:30N 36°49' W 008°45'5 2.5
2018-Aug-14 04:28N 36°50' W 008°39'3 6.3
2018-Aug-14 03:56N 36°53' W 008°38'3 6.7
2018-Aug-14 03:29N 36°56' W 008°37'13 7.4
2018-Aug-14 01:46N 37°08' W 008°32'0 0.2
2018-Aug-14 00:52N 37°08' W 008°32'0 0.0
2018-Aug-14 00:18N 37°08' W 008°32'0 0.0
2018-Aug-14 00:00N 37°08' W 008°32'0 0.0
2018-Aug-13 23:23N 37°08' W 008°32'0 0.0
2018-Aug-13 22:55N 37°08' W 008°32'0 0.0
2018-Aug-13 22:29N 37°08' W 008°32'0 0.0
2018-Aug-13 21:56N 37°08' W 008°32'0 0.0
2018-Aug-13 21:29N 37°08' W 008°32'0 0.0
2018-Aug-13 21:00N 37°08' W 008°32'0 0.0
2018-Aug-13 20:30N 37°08' W 008°32'0 0.0
2018-Aug-13 20:00N 37°08' W 008°32'0 0.1
2018-Aug-13 19:30N 37°08' W 008°32'0 0.5
2018-Aug-13 19:00N 37°08' W 008°32'4 7.1
2018-Aug-13 18:30N 37°04' W 008°33'4 7.7
2018-Aug-13 18:00N 37°01' W 008°34'4 7.8
2018-Aug-13 17:30N 36°57' W 008°35'4 7.7
2018-Aug-13 16:58N 36°53' W 008°37'2 5.0
2018-Aug-13 16:28N 36°51' W 008°38'2 3.8
2018-Aug-13 15:57N 36°49' W 008°39'1 1.3
2018-Aug-13 15:30N 36°49' W 008°39'1 2.1
2018-Aug-13 15:00N 36°48' W 008°39'1 2.4
2018-Aug-13 14:29N 36°47' W 008°40'1 2.6
2018-Aug-13 14:00N 36°47' W 008°42'1 2.6
2018-Aug-13 13:30N 36°48' W 008°43'1 2.7
2018-Aug-13 13:00N 36°48' W 008°45'1 2.6
2018-Aug-13 12:26N 36°48' W 008°47'3 2.8
2018-Aug-13 11:19N 36°48' W 008°51'1 2.9
2018-Aug-13 10:56N 36°48' W 008°52'2 1.1
2018-Aug-13 09:00N 36°49' W 008°50'5 2.7
2018-Aug-13 07:14N 36°49' W 008°44'1 2.7
2018-Aug-13 07:00N 36°49' W 008°44'2 2.8
2018-Aug-13 06:27N 36°48' W 008°42'2 2.7
2018-Aug-13 05:38N 36°50' W 008°39'4 4.9
2018-Aug-13 04:54N 36°53' W 008°38'4 8.7
2018-Aug-13 04:26N 36°57' W 008°36'4 8.6
2018-Aug-13 04:00N 37°01' W 008°35'7 7.6
2018-Aug-13 03:06N 37°07' W 008°32'1 5.0
2018-Aug-13 02:53N 37°08' W 008°32'  
2018-Aug-10 12:38N 37°08' W 008°32'0 0.0
2018-Aug-10 12:30N 37°08' W 008°32'0 0.0
2018-Aug-10 12:00N 37°08' W 008°32'0 0.0
2018-Aug-10 11:30N 37°08' W 008°32'0 0.0
2018-Aug-10 10:59N 37°08' W 008°32'0 0.0
2018-Aug-10 10:30N 37°08' W 008°32'17 0.9
2018-Aug-09 16:48N 36°51' W 008°34'1 2.7
2018-Aug-09 16:30N 36°51' W 008°34'1 2.7
2018-Aug-09 15:58N 36°50' W 008°36'2 3.2
2018-Aug-09 15:30N 36°51' W 008°38'1 1.9
2018-Aug-09 15:01N 36°52' W 008°39'1 1.4
2018-Aug-09 14:30N 36°51' W 008°39'1 2.6
2018-Aug-09 14:00N 36°50' W 008°40'1 2.5
2018-Aug-09 13:30N 36°50' W 008°41'1 2.6
2018-Aug-09 13:01N 36°50' W 008°43'1 2.7
2018-Aug-09 12:27N 36°50' W 008°45'1 2.6
2018-Aug-09 11:59N 36°51' W 008°46'1 2.7
2018-Aug-09 11:31N 36°51' W 008°48'4 0.8
2018-Aug-09 06:21N 36°50' W 008°43'1 2.9
2018-Aug-09 05:59N 36°50' W 008°42'3 2.6
2018-Aug-09 05:00N 36°51' W 008°39'1 2.8
2018-Aug-09 04:30N 36°50' W 008°38'0 0.5
2018-Aug-09 04:00N 36°50' W 008°39'0 0.4
2018-Aug-09 03:30N 36°50' W 008°39'0 0.5
2018-Aug-09 03:00N 36°50' W 008°39'0 0.4
2018-Aug-09 02:30N 36°50' W 008°39'0 0.4
2018-Aug-09 01:59N 36°50' W 008°39'0 0.4
2018-Aug-09 01:26N 36°51' W 008°40'0 0.4
2018-Aug-09 01:00N 36°51' W 008°40'0 0.5
2018-Aug-09 00:30N 36°51' W 008°40'0 0.5
2018-Aug-09 00:00N 36°51' W 008°40'0 0.7
2018-Aug-08 23:30N 36°52' W 008°40'0 0.9
2018-Aug-08 23:00N 36°52' W 008°40'1 1.0
2018-Aug-08 22:29N 36°53' W 008°40'1 1.1
2018-Aug-08 22:00N 36°53' W 008°40'1 1.0
2018-Aug-08 21:30N 36°53' W 008°40'3 5.9
2018-Aug-08 20:58N 36°51' W 008°39'0 0.6
2018-Aug-08 20:30N 36°51' W 008°39'1 2.5
2018-Aug-08 20:00N 36°50' W 008°40'1 2.5
2018-Aug-08 19:30N 36°50' W 008°41'1 2.6
2018-Aug-08 19:00N 36°50' W 008°43'1 2.7
2018-Aug-08 18:30N 36°50' W 008°44'1 2.7
2018-Aug-08 17:58N 36°50' W 008°46'1 2.7
2018-Aug-08 17:30N 36°51' W 008°48'2 2.7
2018-Aug-08 16:36N 36°51' W 008°51'0 2.7
2018-Aug-08 16:26N 36°51' W 008°51'2 0.8
2018-Aug-08 13:59N 36°51' W 008°49'2 2.5
2018-Aug-08 13:05N 36°51' W 008°46'2 2.5
2018-Aug-08 12:26N 36°50' W 008°44'2 2.7
2018-Aug-08 11:50N 36°50' W 008°42'1 2.7
2018-Aug-08 11:27N 36°50' W 008°41'3 2.5
2018-Aug-08 10:08N 36°49' W 008°37'2 1.7
2018-Aug-08 08:57N 36°50' W 008°39'1 2.6
2018-Aug-08 08:30N 36°50' W 008°41'2 2.6
2018-Aug-08 07:51N 36°50' W 008°43'1 2.9
2018-Aug-08 07:27N 36°51' W 008°44'1 2.7
2018-Aug-08 06:59N 36°51' W 008°46'1 2.7
2018-Aug-08 06:30N 36°51' W 008°47'1 2.7
2018-Aug-08 05:58N 36°51' W 008°49'1 2.8
2018-Aug-08 05:27N 36°51' W 008°51'6 4.0
2018-Aug-08 03:59N 36°57' W 008°54'3 7.1
2018-Aug-08 03:30N 36°60' W 008°55'1 1.2
2018-Aug-08 02:36N 37°01' W 008°56'0 0.0
2018-Aug-08 02:18N 37°01' W 008°56'0 0.1
2018-Aug-07 21:39N 37°01' W 008°55'1 7.2
2018-Aug-07 21:27N 36°60' W 008°54'4 8.4
2018-Aug-07 20:58N 36°56' W 008°52'6 7.7
2018-Aug-07 20:14N 36°51' W 008°49'0 0.7
2018-Aug-07 19:53N 36°51' W 008°49'1 2.5
2018-Aug-07 19:30N 36°51' W 008°48'2 2.5
2018-Aug-07 18:53N 36°51' W 008°46'1 2.3
2018-Aug-07 18:30N 36°50' W 008°45'1 2.6
2018-Aug-07 18:00N 36°50' W 008°43'1 2.6
2018-Aug-07 17:30N 36°50' W 008°42'1 2.7
2018-Aug-07 17:00N 36°50' W 008°40'1 2.6
2018-Aug-07 16:29N 36°50' W 008°38'2 2.6
2018-Aug-07 15:44N 36°49' W 008°36'1 2.1
2018-Aug-07 15:21N 36°49' W 008°35'1 1.3
2018-Aug-07 14:39N 36°49' W 008°36'0 2.9
2018-Aug-07 14:29N 36°49' W 008°37'1 2.9
2018-Aug-07 14:00N 36°50' W 008°39'1 2.8
2018-Aug-07 13:30N 36°50' W 008°40'1 2.9
2018-Aug-07 13:00N 36°50' W 008°42'2 3.1
2018-Aug-07 12:30N 36°51' W 008°44'2 2.9
2018-Aug-07 11:55N 36°51' W 008°46'1 2.9
2018-Aug-07 11:30N 36°51' W 008°47'2 2.9
2018-Aug-07 10:58N 36°51' W 008°49'4 0.9
2018-Aug-07 06:37N 36°49' W 008°45'1 2.8
2018-Aug-07 06:10N 36°50' W 008°45'1 3.3
2018-Aug-07 05:48N 36°51' W 008°45'1 1.6
2018-Aug-07 05:07N 36°52' W 008°45'0 0.6
2018-Aug-07 04:57N 36°53' W 008°45'1 1.9
2018-Aug-07 04:22N 36°53' W 008°46'0 0.4
2018-Aug-07 03:59N 36°53' W 008°47'0 0.4
2018-Aug-07 03:27N 36°53' W 008°47'1 0.4
2018-Aug-07 01:32N 36°53' W 008°48'0 0.5
2018-Aug-07 01:23N 36°54' W 008°48'0 0.6
2018-Aug-07 00:57N 36°54' W 008°48'0 0.7
2018-Aug-07 00:23N 36°54' W 008°48'0 0.7
2018-Aug-07 00:00N 36°54' W 008°48'0 0.7
2018-Aug-06 23:30N 36°55' W 008°48'2 3.6
2018-Aug-06 23:00N 36°56' W 008°50'4 7.9
2018-Aug-06 22:30N 36°58' W 008°54'4 7.6
2018-Aug-06 21:59N 36°60' W 008°58'14 8.0
2018-Aug-06 20:16N 37°13' W 009°02'3 8.3
2018-Aug-06 19:56N 37°16' W 009°02'4 8.4
2018-Aug-06 19:24N 37°20' W 009°04'4 8.6
2018-Aug-06 18:53N 37°24' W 009°06'4 8.7
2018-Aug-06 18:29N 37°28' W 009°07'4 8.8
2018-Aug-06 18:00N 37°32' W 009°09'3 5.1
2018-Aug-06 17:30N 37°34' W 009°11'1 1.3
2018-Aug-06 17:00N 37°34' W 009°11'1 3.0
2018-Aug-06 16:30N 37°36' W 009°11'1 2.9
2018-Aug-06 15:59N 37°37' W 009°11'1 2.9
2018-Aug-06 15:30N 37°39' W 009°11'1 3.0
2018-Aug-06 15:00N 37°40' W 009°12'2 3.0
2018-Aug-06 14:30N 37°42' W 009°11'1 3.1
2018-Aug-06 14:00N 37°43' W 009°11'2 3.1
2018-Aug-06 13:30N 37°45' W 009°11'2 3.1
2018-Aug-06 13:00N 37°46' W 009°11'2 3.1
2018-Aug-06 12:30N 37°48' W 009°11'2 3.4
2018-Aug-06 12:00N 37°49' W 009°11'1 1.5
2018-Aug-06 11:30N 37°49' W 009°10'1 2.7
2018-Aug-06 11:00N 37°48' W 009°10'1 2.5
2018-Aug-06 10:30N 37°47' W 009°11'1 2.2
2018-Aug-06 10:00N 37°46' W 009°12'2 3.9
2018-Aug-06 09:30N 37°45' W 009°14'1 2.9
2018-Aug-06 09:00N 37°45' W 009°16'0 0.3
2018-Aug-06 08:30N 37°45' W 009°16'1 2.5
2018-Aug-06 08:00N 37°43' W 009°15'1 2.7
2018-Aug-06 07:30N 37°42' W 009°15'1 2.7
2018-Aug-06 07:00N 37°41' W 009°14'1 2.5
2018-Aug-06 06:30N 37°40' W 009°15'2 3.5
2018-Aug-06 06:00N 37°38' W 009°16'4 8.3
2018-Aug-06 05:30N 37°38' W 009°21'1 2.8
2018-Aug-06 05:00N 37°38' W 009°23'0 0.2
2018-Aug-06 04:30N 37°38' W 009°23'1 2.7
2018-Aug-06 04:00N 37°37' W 009°22'1 2.6
2018-Aug-06 03:30N 37°36' W 009°21'1 2.5
2018-Aug-06 03:00N 37°35' W 009°20'1 2.6
2018-Aug-06 02:30N 37°33' W 009°20'1 2.7
2018-Aug-06 02:00N 37°32' W 009°19'1 2.7
2018-Aug-06 01:30N 37°31' W 009°18'1 2.2
2018-Aug-06 01:00N 37°30' W 009°18'2 3.2
2018-Aug-06 00:30N 37°28' W 009°18'2 4.8
2018-Aug-06 00:00N 37°26' W 009°17'4 8.4
2018-Aug-05 23:30N 37°22' W 009°15'4 8.1
2018-Aug-05 23:00N 37°19' W 009°13'4 8.2
2018-Aug-05 22:30N 37°15' W 009°10'4 8.7
2018-Aug-05 22:00N 37°11' W 009°07'5 8.8
2018-Aug-05 21:29N 37°08' W 009°04'4 8.0
2018-Aug-05 20:58N 37°04' W 009°02'6 1.4
2018-Aug-05 16:55N 37°01' W 008°56'0 0.0
2018-Aug-05 16:30N 37°01' W 008°56'0 0.0
2018-Aug-05 16:00N 37°01' W 008°56'0 0.0
2018-Aug-05 15:30N 37°01' W 008°56'0 0.0
2018-Aug-05 14:59N 37°01' W 008°56'0 0.1
2018-Aug-05 14:30N 37°01' W 008°56'0 0.2
2018-Aug-05 13:30N 37°01' W 008°55'  

Dump ship's entire track history